createdAt,value
2023-01-30T00:06:21.555Z,0.95
2023-01-30T00:36:39.373Z,0.85
2023-01-30T01:06:56.046Z,0.85
2023-01-30T01:37:14.670Z,0.95
2023-01-30T02:07:31.404Z,1
2023-01-30T02:37:48.206Z,1
2023-01-30T03:08:05.288Z,1.1
2023-01-30T03:38:22.766Z,1.25
2023-01-30T04:08:41.939Z,1.3
2023-01-30T04:39:00.684Z,1.45
2023-01-30T05:09:19.052Z,1.6
2023-01-30T05:39:38.186Z,1.6
2023-01-30T06:09:56.560Z,1.95
2023-01-30T06:40:14.775Z,1.95
2023-01-30T07:10:33.689Z,2.15
2023-01-30T07:40:51.250Z,2.15
2023-01-30T08:11:09.204Z,2.4
2023-01-30T08:41:27.407Z,2.7
2023-01-30T09:42:07.171Z,4.25
2023-01-30T10:12:28.969Z,4.9
2023-01-30T10:42:47.683Z,5.85
2023-01-30T11:13:10.996Z,7.5
2023-01-30T11:43:31.455Z,7.65
2023-01-30T12:13:48.313Z,7.15
2023-01-30T12:44:03.535Z,6.7
2023-01-30T13:14:20.491Z,6.75
2023-01-30T13:44:39.407Z,6.45
2023-01-30T14:14:58.329Z,6.2
2023-01-30T14:45:16.143Z,6
2023-01-30T15:15:32.420Z,5.55
2023-01-30T15:45:50.865Z,5.6
2023-01-30T16:16:07.564Z,5.3
2023-01-30T16:46:23.012Z,5.15
2023-01-30T17:16:40.758Z,5.45
2023-01-30T17:46:58.948Z,5.55
2023-01-30T18:17:17.531Z,5.55
2023-01-30T18:47:34.871Z,5.65
2023-01-30T19:17:52.331Z,5.6
2023-01-30T19:48:10.631Z,5.7
2023-01-30T20:18:28.842Z,5.65
2023-01-30T20:48:45.153Z,5.6
2023-01-30T21:19:04.098Z,5.65
2023-01-30T21:49:21.443Z,5.25
2023-01-30T22:19:37.546Z,4.75
2023-01-30T22:49:55.256Z,4.3
2023-01-30T23:20:11.519Z,3.95
2023-01-30T23:50:28.572Z,3.75
